sensor_id;sensor_type;location;lat;lon;timestamp;P1;durP1;ratioP1;P2;durP2;ratioP2
73515;SDS011;61763;51.416;5.442;2023-06-14T00:00:11;8.85;;;4.50;;
73515;SDS011;61763;51.416;5.442;2023-06-14T00:02:40;6.65;;;4.30;;
73515;SDS011;61763;51.416;5.442;2023-06-14T00:05:06;9.27;;;4.93;;
73515;SDS011;61763;51.416;5.442;2023-06-14T00:07:36;8.85;;;4.32;;
73515;SDS011;61763;51.416;5.442;2023-06-14T00:10:10;9.27;;;4.72;;
73515;SDS011;61763;51.416;5.442;2023-06-14T00:12:38;8.05;;;4.78;;
73515;SDS011;61763;51.416;5.442;2023-06-14T00:15:04;7.40;;;4.68;;
73515;SDS011;61763;51.416;5.442;2023-06-14T00:17:32;9.00;;;5.03;;
73515;SDS011;61763;51.416;5.442;2023-06-14T00:19:57;8.40;;;4.78;;
73515;SDS011;61763;51.416;5.442;2023-06-14T00:22:24;7.30;;;4.57;;
73515;SDS011;61763;51.416;5.442;2023-06-14T00:24:50;8.77;;;4.50;;
73515;SDS011;61763;51.416;5.442;2023-06-14T00:27:16;10.63;;;4.40;;
73515;SDS011;61763;51.416;5.442;2023-06-14T00:29:41;8.43;;;3.95;;
73515;SDS011;61763;51.416;5.442;2023-06-14T00:32:07;8.98;;;4.60;;
73515;SDS011;61763;51.416;5.442;2023-06-14T00:34:32;8.50;;;4.82;;
73515;SDS011;61763;51.416;5.442;2023-06-14T00:36:58;8.10;;;4.18;;
73515;SDS011;61763;51.416;5.442;2023-06-14T00:39:24;7.97;;;4.22;;
73515;SDS011;61763;51.416;5.442;2023-06-14T00:41:49;8.90;;;4.70;;
73515;SDS011;61763;51.416;5.442;2023-06-14T00:44:15;11.20;;;4.32;;
73515;SDS011;61763;51.416;5.442;2023-06-14T00:46:42;5.68;;;3.88;;
73515;SDS011;61763;51.416;5.442;2023-06-14T00:49:08;6.80;;;3.78;;
73515;SDS011;61763;51.416;5.442;2023-06-14T00:51:35;6.82;;;4.60;;
73515;SDS011;61763;51.416;5.442;2023-06-14T00:54:02;8.15;;;4.95;;
73515;SDS011;61763;51.416;5.442;2023-06-14T00:56:28;7.32;;;3.90;;
73515;SDS011;61763;51.416;5.442;2023-06-14T00:58:53;6.65;;;3.40;;
73515;SDS011;61763;51.416;5.442;2023-06-14T01:01:20;7.30;;;4.32;;
73515;SDS011;61763;51.416;5.442;2023-06-14T01:03:45;7.72;;;3.95;;
73515;SDS011;61763;51.416;5.442;2023-06-14T01:12:03;6.60;;;4.22;;
73515;SDS011;61763;51.416;5.442;2023-06-14T01:14:39;8.93;;;4.07;;
73515;SDS011;61763;51.416;5.442;2023-06-14T01:17:05;6.47;;;4.18;;
73515;SDS011;61763;51.416;5.442;2023-06-14T01:19:40;9.32;;;4.15;;
73515;SDS011;61763;51.416;5.442;2023-06-14T01:24:33;8.57;;;4.55;;
73515;SDS011;61763;51.416;5.442;2023-06-14T01:26:59;6.57;;;3.70;;
73515;SDS011;61763;51.416;5.442;2023-06-14T01:29:27;8.20;;;3.58;;
73515;SDS011;61763;51.416;5.442;2023-06-14T01:31:57;6.72;;;3.55;;
73515;SDS011;61763;51.416;5.442;2023-06-14T01:34:24;7.45;;;3.88;;
73515;SDS011;61763;51.416;5.442;2023-06-14T01:36:49;8.05;;;3.65;;
73515;SDS011;61763;51.416;5.442;2023-06-14T01:39:15;8.02;;;4.15;;
73515;SDS011;61763;51.416;5.442;2023-06-14T01:41:43;10.75;;;3.53;;
73515;SDS011;61763;51.416;5.442;2023-06-14T01:44:10;6.22;;;3.42;;
73515;SDS011;61763;51.416;5.442;2023-06-14T01:46:38;7.38;;;3.83;;
73515;SDS011;61763;51.416;5.442;2023-06-14T01:51:30;7.20;;;4.07;;
73515;SDS011;61763;51.416;5.442;2023-06-14T01:53:56;7.60;;;4.00;;
73515;SDS011;61763;51.416;5.442;2023-06-14T01:56:22;9.80;;;3.30;;
73515;SDS011;61763;51.416;5.442;2023-06-14T01:58:47;8.02;;;3.80;;
73515;SDS011;61763;51.416;5.442;2023-06-14T02:01:13;7.97;;;4.03;;
73515;SDS011;61763;51.416;5.442;2023-06-14T02:03:41;9.48;;;4.07;;
73515;SDS011;61763;51.416;5.442;2023-06-14T02:06:07;6.10;;;3.17;;
73515;SDS011;61763;51.416;5.442;2023-06-14T02:08:33;7.97;;;3.25;;
73515;SDS011;61763;51.416;5.442;2023-06-14T02:10:58;8.65;;;3.50;;
73515;SDS011;61763;51.416;5.442;2023-06-14T02:13:23;7.82;;;3.30;;
73515;SDS011;61763;51.416;5.442;2023-06-14T02:15:49;9.07;;;3.72;;
73515;SDS011;61763;51.416;5.442;2023-06-14T02:18:19;7.00;;;3.15;;
73515;SDS011;61763;51.416;5.442;2023-06-14T02:20:45;6.85;;;3.20;;
73515;SDS011;61763;51.416;5.442;2023-06-14T02:23:10;6.47;;;3.80;;
73515;SDS011;61763;51.416;5.442;2023-06-14T02:25:35;8.23;;;3.83;;
73515;SDS011;61763;51.416;5.442;2023-06-14T02:28:01;6.80;;;2.90;;
73515;SDS011;61763;51.416;5.442;2023-06-14T02:30:26;6.85;;;3.70;;
73515;SDS011;61763;51.416;5.442;2023-06-14T02:32:52;6.82;;;3.63;;
73515;SDS011;61763;51.416;5.442;2023-06-14T02:35:18;7.72;;;2.83;;
73515;SDS011;61763;51.416;5.442;2023-06-14T02:37:45;8.57;;;3.00;;
73515;SDS011;61763;51.416;5.442;2023-06-14T02:40:11;6.82;;;3.38;;
73515;SDS011;61763;51.416;5.442;2023-06-14T02:42:37;4.53;;;3.17;;
73515;SDS011;61763;51.416;5.442;2023-06-14T02:45:02;7.05;;;3.33;;
73515;SDS011;61763;51.416;5.442;2023-06-14T02:47:29;5.63;;;3.03;;
73515;SDS011;61763;51.416;5.442;2023-06-14T02:49:54;7.78;;;3.15;;
73515;SDS011;61763;51.416;5.442;2023-06-14T02:52:20;6.40;;;3.13;;
73515;SDS011;61763;51.416;5.442;2023-06-14T02:54:46;5.40;;;3.00;;
73515;SDS011;61763;51.416;5.442;2023-06-14T02:57:12;5.53;;;3.33;;
73515;SDS011;61763;51.416;5.442;2023-06-14T02:59:37;8.52;;;3.00;;
73515;SDS011;61763;51.416;5.442;2023-06-14T03:02:03;6.25;;;2.75;;
73515;SDS011;61763;51.416;5.442;2023-06-14T03:04:28;6.43;;;3.22;;
73515;SDS011;61763;51.416;5.442;2023-06-14T03:06:54;6.60;;;3.28;;
73515;SDS011;61763;51.416;5.442;2023-06-14T03:09:20;6.18;;;3.15;;
73515;SDS011;61763;51.416;5.442;2023-06-14T03:11:46;6.32;;;3.00;;
73515;SDS011;61763;51.416;5.442;2023-06-14T03:14:12;7.55;;;3.30;;
73515;SDS011;61763;51.416;5.442;2023-06-14T03:16:38;6.43;;;3.38;;
73515;SDS011;61763;51.416;5.442;2023-06-14T03:19:04;6.38;;;2.80;;
73515;SDS011;61763;51.416;5.442;2023-06-14T03:21:29;7.30;;;2.75;;
73515;SDS011;61763;51.416;5.442;2023-06-14T03:23:55;6.93;;;2.95;;
73515;SDS011;61763;51.416;5.442;2023-06-14T03:26:20;5.68;;;2.85;;
73515;SDS011;61763;51.416;5.442;2023-06-14T03:28:47;6.63;;;2.75;;
73515;SDS011;61763;51.416;5.442;2023-06-14T03:33:41;7.18;;;2.92;;
73515;SDS011;61763;51.416;5.442;2023-06-14T03:36:06;5.50;;;2.55;;
73515;SDS011;61763;51.416;5.442;2023-06-14T03:38:33;5.40;;;2.30;;
73515;SDS011;61763;51.416;5.442;2023-06-14T03:40:59;5.47;;;3.35;;
73515;SDS011;61763;51.416;5.442;2023-06-14T03:43:24;6.72;;;2.92;;
73515;SDS011;61763;51.416;5.442;2023-06-14T03:45:50;5.90;;;3.20;;
73515;SDS011;61763;51.416;5.442;2023-06-14T03:48:15;7.85;;;3.05;;
73515;SDS011;61763;51.416;5.442;2023-06-14T03:50:41;5.18;;;2.67;;
73515;SDS011;61763;51.416;5.442;2023-06-14T03:53:07;5.28;;;2.80;;
73515;SDS011;61763;51.416;5.442;2023-06-14T03:55:33;9.05;;;2.95;;
73515;SDS011;61763;51.416;5.442;2023-06-14T03:57:59;7.30;;;2.70;;
73515;SDS011;61763;51.416;5.442;2023-06-14T04:00:24;5.18;;;3.00;;
73515;SDS011;61763;51.416;5.442;2023-06-14T04:02:50;5.45;;;2.58;;
73515;SDS011;61763;51.416;5.442;2023-06-14T04:05:16;6.53;;;2.42;;
73515;SDS011;61763;51.416;5.442;2023-06-14T04:07:44;5.05;;;2.47;;
73515;SDS011;61763;51.416;5.442;2023-06-14T04:10:10;5.78;;;2.70;;
73515;SDS011;61763;51.416;5.442;2023-06-14T04:15:02;6.70;;;2.60;;
73515;SDS011;61763;51.416;5.442;2023-06-14T04:17:28;7.20;;;3.22;;
73515;SDS011;61763;51.416;5.442;2023-06-14T04:19:54;8.52;;;4.10;;
73515;SDS011;61763;51.416;5.442;2023-06-14T04:22:20;7.68;;;2.63;;
73515;SDS011;61763;51.416;5.442;2023-06-14T04:24:46;5.80;;;2.33;;
73515;SDS011;61763;51.416;5.442;2023-06-14T04:27:11;5.38;;;2.67;;
73515;SDS011;61763;51.416;5.442;2023-06-14T04:29:36;4.57;;;2.65;;
73515;SDS011;61763;51.416;5.442;2023-06-14T04:32:02;5.95;;;3.20;;
73515;SDS011;61763;51.416;5.442;2023-06-14T04:34:28;6.82;;;3.50;;
73515;SDS011;61763;51.416;5.442;2023-06-14T04:36:55;6.28;;;2.88;;
73515;SDS011;61763;51.416;5.442;2023-06-14T04:39:21;4.45;;;2.45;;
73515;SDS011;61763;51.416;5.442;2023-06-14T04:41:47;6.65;;;2.60;;
73515;SDS011;61763;51.416;5.442;2023-06-14T04:44:18;5.55;;;2.45;;
73515;SDS011;61763;51.416;5.442;2023-06-14T04:46:44;5.07;;;2.53;;
73515;SDS011;61763;51.416;5.442;2023-06-14T04:49:13;6.72;;;2.53;;
73515;SDS011;61763;51.416;5.442;2023-06-14T04:51:42;5.53;;;2.40;;
73515;SDS011;61763;51.416;5.442;2023-06-14T04:54:09;6.25;;;2.70;;
73515;SDS011;61763;51.416;5.442;2023-06-14T04:56:39;6.57;;;2.95;;
73515;SDS011;61763;51.416;5.442;2023-06-14T04:59:05;12.23;;;2.78;;
73515;SDS011;61763;51.416;5.442;2023-06-14T05:01:31;6.40;;;3.03;;
73515;SDS011;61763;51.416;5.442;2023-06-14T05:03:57;6.68;;;2.58;;
73515;SDS011;61763;51.416;5.442;2023-06-14T05:06:23;7.93;;;2.55;;
73515;SDS011;61763;51.416;5.442;2023-06-14T05:08:48;10.02;;;3.00;;
73515;SDS011;61763;51.416;5.442;2023-06-14T05:11:14;7.57;;;2.95;;
73515;SDS011;61763;51.416;5.442;2023-06-14T05:13:39;6.43;;;2.88;;
73515;SDS011;61763;51.416;5.442;2023-06-14T05:16:06;6.43;;;3.15;;
73515;SDS011;61763;51.416;5.442;2023-06-14T05:18:31;6.90;;;2.70;;
73515;SDS011;61763;51.416;5.442;2023-06-14T05:20:59;8.65;;;3.15;;
73515;SDS011;61763;51.416;5.442;2023-06-14T05:23:24;5.93;;;2.97;;
73515;SDS011;61763;51.416;5.442;2023-06-14T05:25:50;5.72;;;3.10;;
73515;SDS011;61763;51.416;5.442;2023-06-14T05:28:15;6.93;;;3.22;;
73515;SDS011;61763;51.416;5.442;2023-06-14T05:30:41;6.45;;;3.08;;
73515;SDS011;61763;51.416;5.442;2023-06-14T05:33:06;6.25;;;2.75;;
73515;SDS011;61763;51.416;5.442;2023-06-14T05:35:32;9.52;;;3.08;;
73515;SDS011;61763;51.416;5.442;2023-06-14T05:37:57;7.75;;;3.17;;
73515;SDS011;61763;51.416;5.442;2023-06-14T05:40:23;8.75;;;3.70;;
73515;SDS011;61763;51.416;5.442;2023-06-14T05:42:48;7.43;;;3.30;;
73515;SDS011;61763;51.416;5.442;2023-06-14T05:45:13;6.47;;;3.00;;
73515;SDS011;61763;51.416;5.442;2023-06-14T05:47:40;6.72;;;4.03;;
73515;SDS011;61763;51.416;5.442;2023-06-14T05:50:06;5.93;;;3.25;;
73515;SDS011;61763;51.416;5.442;2023-06-14T05:52:32;7.90;;;3.17;;
73515;SDS011;61763;51.416;5.442;2023-06-14T05:54:57;6.28;;;3.58;;
73515;SDS011;61763;51.416;5.442;2023-06-14T05:57:22;8.80;;;3.50;;
73515;SDS011;61763;51.416;5.442;2023-06-14T05:59:48;8.77;;;3.58;;
73515;SDS011;61763;51.416;5.442;2023-06-14T06:02:13;5.28;;;3.25;;
73515;SDS011;61763;51.416;5.442;2023-06-14T06:04:39;6.40;;;3.53;;
73515;SDS011;61763;51.416;5.442;2023-06-14T06:07:04;5.75;;;3.17;;
73515;SDS011;61763;51.416;5.442;2023-06-14T06:09:30;6.25;;;2.95;;
73515;SDS011;61763;51.416;5.442;2023-06-14T06:11:56;10.63;;;2.90;;
73515;SDS011;61763;51.416;5.442;2023-06-14T06:14:21;5.57;;;3.05;;
73515;SDS011;61763;51.416;5.442;2023-06-14T06:16:46;6.50;;;3.10;;
73515;SDS011;61763;51.416;5.442;2023-06-14T06:19:12;6.75;;;2.67;;
73515;SDS011;61763;51.416;5.442;2023-06-14T06:21:37;7.22;;;3.15;;
73515;SDS011;61763;51.416;5.442;2023-06-14T06:24:04;5.45;;;3.38;;
73515;SDS011;61763;51.416;5.442;2023-06-14T06:26:30;7.35;;;2.83;;
73515;SDS011;61763;51.416;5.442;2023-06-14T06:28:56;7.15;;;3.05;;
73515;SDS011;61763;51.416;5.442;2023-06-14T06:31:22;5.40;;;2.95;;
73515;SDS011;61763;51.416;5.442;2023-06-14T06:33:47;5.25;;;2.35;;
73515;SDS011;61763;51.416;5.442;2023-06-14T06:36:13;9.48;;;3.83;;
73515;SDS011;61763;51.416;5.442;2023-06-14T06:38:38;8.20;;;2.90;;
73515;SDS011;61763;51.416;5.442;2023-06-14T06:41:04;5.45;;;3.05;;
73515;SDS011;61763;51.416;5.442;2023-06-14T06:43:29;4.65;;;2.53;;
73515;SDS011;61763;51.416;5.442;2023-06-14T06:45:55;7.95;;;3.35;;
73515;SDS011;61763;51.416;5.442;2023-06-14T06:48:20;9.73;;;3.75;;
73515;SDS011;61763;51.416;5.442;2023-06-14T06:50:45;6.45;;;3.10;;
73515;SDS011;61763;51.416;5.442;2023-06-14T06:53:11;5.88;;;3.08;;
73515;SDS011;61763;51.416;5.442;2023-06-14T06:55:36;8.82;;;3.28;;
73515;SDS011;61763;51.416;5.442;2023-06-14T06:58:01;9.55;;;3.13;;
73515;SDS011;61763;51.416;5.442;2023-06-14T07:00:29;10.20;;;3.03;;
73515;SDS011;61763;51.416;5.442;2023-06-14T07:02:55;12.85;;;3.15;;
73515;SDS011;61763;51.416;5.442;2023-06-14T07:05:20;8.60;;;2.47;;
73515;SDS011;61763;51.416;5.442;2023-06-14T07:07:45;6.05;;;3.03;;
73515;SDS011;61763;51.416;5.442;2023-06-14T07:10:11;8.18;;;3.25;;
73515;SDS011;61763;51.416;5.442;2023-06-14T07:12:36;6.00;;;2.70;;
73515;SDS011;61763;51.416;5.442;2023-06-14T07:15:04;6.65;;;2.40;;
73515;SDS011;61763;51.416;5.442;2023-06-14T07:17:33;8.48;;;3.08;;
73515;SDS011;61763;51.416;5.442;2023-06-14T07:19:59;6.15;;;2.85;;
73515;SDS011;61763;51.416;5.442;2023-06-14T07:22:25;5.43;;;1.38;;
73515;SDS011;61763;51.416;5.442;2023-06-14T07:24:51;5.30;;;2.53;;
73515;SDS011;61763;51.416;5.442;2023-06-14T07:27:17;4.18;;;1.85;;
73515;SDS011;61763;51.416;5.442;2023-06-14T07:29:42;6.20;;;2.75;;
73515;SDS011;61763;51.416;5.442;2023-06-14T07:32:07;4.30;;;2.28;;
73515;SDS011;61763;51.416;5.442;2023-06-14T07:34:33;6.15;;;2.42;;
73515;SDS011;61763;51.416;5.442;2023-06-14T07:36:58;5.23;;;2.80;;
73515;SDS011;61763;51.416;5.442;2023-06-14T07:39:23;7.00;;;2.58;;
73515;SDS011;61763;51.416;5.442;2023-06-14T07:41:49;6.30;;;2.08;;
73515;SDS011;61763;51.416;5.442;2023-06-14T07:44:14;5.95;;;2.30;;
73515;SDS011;61763;51.416;5.442;2023-06-14T07:46:40;5.70;;;2.33;;
73515;SDS011;61763;51.416;5.442;2023-06-14T07:49:06;6.53;;;2.10;;
73515;SDS011;61763;51.416;5.442;2023-06-14T07:51:32;5.57;;;2.55;;
73515;SDS011;61763;51.416;5.442;2023-06-14T07:54:01;6.85;;;2.53;;
73515;SDS011;61763;51.416;5.442;2023-06-14T07:56:28;5.18;;;1.90;;
73515;SDS011;61763;51.416;5.442;2023-06-14T07:58:53;5.22;;;2.38;;
73515;SDS011;61763;51.416;5.442;2023-06-14T08:01:19;7.82;;;2.50;;
73515;SDS011;61763;51.416;5.442;2023-06-14T08:03:45;4.75;;;2.08;;
73515;SDS011;61763;51.416;5.442;2023-06-14T08:06:10;6.13;;;2.30;;
73515;SDS011;61763;51.416;5.442;2023-06-14T08:08:36;7.03;;;2.92;;
73515;SDS011;61763;51.416;5.442;2023-06-14T08:11:01;4.38;;;2.35;;
73515;SDS011;61763;51.416;5.442;2023-06-14T08:13:27;7.20;;;2.08;;
73515;SDS011;61763;51.416;5.442;2023-06-14T08:15:52;6.88;;;2.22;;
73515;SDS011;61763;51.416;5.442;2023-06-14T08:18:18;5.00;;;1.90;;
73515;SDS011;61763;51.416;5.442;2023-06-14T08:20:43;4.18;;;2.13;;
73515;SDS011;61763;51.416;5.442;2023-06-14T08:23:09;4.18;;;1.85;;
73515;SDS011;61763;51.416;5.442;2023-06-14T08:25:36;5.25;;;2.10;;
73515;SDS011;61763;51.416;5.442;2023-06-14T08:28:01;7.40;;;1.77;;
73515;SDS011;61763;51.416;5.442;2023-06-14T08:30:27;5.80;;;1.87;;
73515;SDS011;61763;51.416;5.442;2023-06-14T08:32:52;3.55;;;1.60;;
73515;SDS011;61763;51.416;5.442;2023-06-14T08:35:22;5.90;;;2.70;;
73515;SDS011;61763;51.416;5.442;2023-06-14T08:37:47;5.15;;;2.03;;
73515;SDS011;61763;51.416;5.442;2023-06-14T08:40:21;7.50;;;1.85;;
73515;SDS011;61763;51.416;5.442;2023-06-14T08:42:53;4.85;;;2.08;;
73515;SDS011;61763;51.416;5.442;2023-06-14T08:45:21;3.30;;;1.60;;
73515;SDS011;61763;51.416;5.442;2023-06-14T08:47:48;3.50;;;1.90;;
73515;SDS011;61763;51.416;5.442;2023-06-14T08:50:23;10.05;;;1.88;;
73515;SDS011;61763;51.416;5.442;2023-06-14T08:52:57;5.10;;;1.55;;
73515;SDS011;61763;51.416;5.442;2023-06-14T08:55:27;7.43;;;1.65;;
73515;SDS011;61763;51.416;5.442;2023-06-14T08:57:54;4.45;;;1.77;;
73515;SDS011;61763;51.416;5.442;2023-06-14T09:00:22;4.43;;;2.40;;
73515;SDS011;61763;51.416;5.442;2023-06-14T09:05:20;5.50;;;1.65;;
73515;SDS011;61763;51.416;5.442;2023-06-14T09:07:49;4.85;;;1.92;;
73515;SDS011;61763;51.416;5.442;2023-06-14T09:10:15;4.43;;;1.75;;
73515;SDS011;61763;51.416;5.442;2023-06-14T09:12:41;2.88;;;1.10;;
73515;SDS011;61763;51.416;5.442;2023-06-14T09:15:07;4.03;;;1.38;;
73515;SDS011;61763;51.416;5.442;2023-06-14T09:17:37;3.80;;;1.40;;
73515;SDS011;61763;51.416;5.442;2023-06-14T09:20:07;3.40;;;1.50;;
73515;SDS011;61763;51.416;5.442;2023-06-14T09:22:35;5.57;;;1.40;;
73515;SDS011;61763;51.416;5.442;2023-06-14T09:25:05;2.40;;;1.45;;
73515;SDS011;61763;51.416;5.442;2023-06-14T09:27:31;3.45;;;1.20;;
73515;SDS011;61763;51.416;5.442;2023-06-14T09:29:57;6.57;;;1.25;;
73515;SDS011;61763;51.416;5.442;2023-06-14T09:32:23;2.60;;;1.33;;
73515;SDS011;61763;51.416;5.442;2023-06-14T09:34:49;4.75;;;1.02;;
73515;SDS011;61763;51.416;5.442;2023-06-14T09:37:31;4.15;;;0.90;;
73515;SDS011;61763;51.416;5.442;2023-06-14T09:39:57;2.42;;;0.85;;
73515;SDS011;61763;51.416;5.442;2023-06-14T09:42:24;3.28;;;1.00;;
73515;SDS011;61763;51.416;5.442;2023-06-14T09:44:54;2.40;;;0.70;;
73515;SDS011;61763;51.416;5.442;2023-06-14T09:47:20;2.38;;;0.85;;
73515;SDS011;61763;51.416;5.442;2023-06-14T09:49:47;3.25;;;0.63;;
73515;SDS011;61763;51.416;5.442;2023-06-14T09:52:17;3.25;;;1.17;;
73515;SDS011;61763;51.416;5.442;2023-06-14T09:54:44;3.50;;;0.98;;
73515;SDS011;61763;51.416;5.442;2023-06-14T09:57:20;2.45;;;0.55;;
73515;SDS011;61763;51.416;5.442;2023-06-14T10:02:24;2.47;;;0.88;;
73515;SDS011;61763;51.416;5.442;2023-06-14T10:04:57;2.13;;;0.68;;
73515;SDS011;61763;51.416;5.442;2023-06-14T10:07:30;3.40;;;0.52;;
73515;SDS011;61763;51.416;5.442;2023-06-14T10:10:00;1.52;;;0.73;;
73515;SDS011;61763;51.416;5.442;2023-06-14T10:12:26;1.60;;;0.63;;
73515;SDS011;61763;51.416;5.442;2023-06-14T10:14:52;5.72;;;0.60;;
73515;SDS011;61763;51.416;5.442;2023-06-14T10:17:25;2.38;;;0.40;;
73515;SDS011;61763;51.416;5.442;2023-06-14T10:22:34;5.75;;;0.90;;
73515;SDS011;61763;51.416;5.442;2023-06-14T10:25:12;3.75;;;0.95;;
73515;SDS011;61763;51.416;5.442;2023-06-14T10:27:50;2.13;;;1.25;;
73515;SDS011;61763;51.416;5.442;2023-06-14T10:30:16;3.03;;;1.10;;
73515;SDS011;61763;51.416;5.442;2023-06-14T10:35:35;1.20;;;0.45;;
73515;SDS011;61763;51.416;5.442;2023-06-14T10:38:07;2.15;;;1.45;;
73515;SDS011;61763;51.416;5.442;2023-06-14T10:40:33;6.38;;;1.00;;
73515;SDS011;61763;51.416;5.442;2023-06-14T10:42:59;3.63;;;0.73;;
73515;SDS011;61763;51.416;5.442;2023-06-14T10:45:25;2.95;;;1.15;;
73515;SDS011;61763;51.416;5.442;2023-06-14T10:47:50;2.47;;;0.77;;
73515;SDS011;61763;51.416;5.442;2023-06-14T10:50:17;1.63;;;0.70;;
73515;SDS011;61763;51.416;5.442;2023-06-14T10:52:53;2.45;;;0.93;;
73515;SDS011;61763;51.416;5.442;2023-06-14T10:55:19;2.65;;;1.08;;
73515;SDS011;61763;51.416;5.442;2023-06-14T10:57:48;3.42;;;0.98;;
73515;SDS011;61763;51.416;5.442;2023-06-14T11:00:23;4.57;;;0.95;;
73515;SDS011;61763;51.416;5.442;2023-06-14T11:05:29;2.28;;;0.98;;
73515;SDS011;61763;51.416;5.442;2023-06-14T11:10:43;2.47;;;1.20;;
73515;SDS011;61763;51.416;5.442;2023-06-14T11:13:10;2.60;;;0.98;;
73515;SDS011;61763;51.416;5.442;2023-06-14T11:15:36;1.88;;;0.68;;
73515;SDS011;61763;51.416;5.442;2023-06-14T11:20:30;2.53;;;1.15;;
73515;SDS011;61763;51.416;5.442;2023-06-14T11:22:57;5.93;;;1.45;;
73515;SDS011;61763;51.416;5.442;2023-06-14T11:25:23;3.38;;;1.00;;
73515;SDS011;61763;51.416;5.442;2023-06-14T11:27:51;3.20;;;1.23;;
73515;SDS011;61763;51.416;5.442;2023-06-14T11:30:17;2.10;;;1.00;;
73515;SDS011;61763;51.416;5.442;2023-06-14T11:32:49;2.50;;;1.17;;
73515;SDS011;61763;51.416;5.442;2023-06-14T11:35:17;4.47;;;1.13;;
73515;SDS011;61763;51.416;5.442;2023-06-14T11:37:43;2.72;;;0.85;;
73515;SDS011;61763;51.416;5.442;2023-06-14T11:40:12;3.22;;;0.77;;
73515;SDS011;61763;51.416;5.442;2023-06-14T11:42:39;2.08;;;1.10;;
73515;SDS011;61763;51.416;5.442;2023-06-14T11:45:09;2.92;;;0.90;;
73515;SDS011;61763;51.416;5.442;2023-06-14T11:47:37;3.53;;;1.08;;
73515;SDS011;61763;51.416;5.442;2023-06-14T11:50:03;2.53;;;0.90;;
73515;SDS011;61763;51.416;5.442;2023-06-14T11:52:31;2.65;;;1.13;;
73515;SDS011;61763;51.416;5.442;2023-06-14T11:54:57;5.65;;;1.27;;
73515;SDS011;61763;51.416;5.442;2023-06-14T11:57:25;3.45;;;1.55;;
73515;SDS011;61763;51.416;5.442;2023-06-14T11:59:50;2.47;;;0.90;;
73515;SDS011;61763;51.416;5.442;2023-06-14T12:02:16;7.40;;;1.60;;
73515;SDS011;61763;51.416;5.442;2023-06-14T12:04:43;4.55;;;0.95;;
73515;SDS011;61763;51.416;5.442;2023-06-14T12:07:12;3.53;;;0.82;;
73515;SDS011;61763;51.416;5.442;2023-06-14T12:09:42;2.70;;;1.13;;
73515;SDS011;61763;51.416;5.442;2023-06-14T12:12:28;11.32;;;1.35;;
73515;SDS011;61763;51.416;5.442;2023-06-14T12:14:55;2.78;;;1.08;;
73515;SDS011;61763;51.416;5.442;2023-06-14T12:17:21;2.28;;;0.80;;
73515;SDS011;61763;51.416;5.442;2023-06-14T12:19:48;3.95;;;0.85;;
73515;SDS011;61763;51.416;5.442;2023-06-14T12:22:15;3.05;;;0.90;;
73515;SDS011;61763;51.416;5.442;2023-06-14T12:24:44;2.20;;;0.80;;
73515;SDS011;61763;51.416;5.442;2023-06-14T12:27:10;3.88;;;0.52;;
73515;SDS011;61763;51.416;5.442;2023-06-14T12:29:40;2.63;;;0.60;;
73515;SDS011;61763;51.416;5.442;2023-06-14T12:32:06;3.25;;;0.93;;
73515;SDS011;61763;51.416;5.442;2023-06-14T12:34:32;4.57;;;0.68;;
73515;SDS011;61763;51.416;5.442;2023-06-14T12:36:57;5.32;;;1.33;;
73515;SDS011;61763;51.416;5.442;2023-06-14T12:39:23;4.78;;;1.02;;
73515;SDS011;61763;51.416;5.442;2023-06-14T12:41:50;3.50;;;0.93;;
73515;SDS011;61763;51.416;5.442;2023-06-14T12:44:15;1.95;;;1.05;;
73515;SDS011;61763;51.416;5.442;2023-06-14T12:46:41;2.85;;;0.90;;
73515;SDS011;61763;51.416;5.442;2023-06-14T12:49:08;3.20;;;0.83;;
73515;SDS011;61763;51.416;5.442;2023-06-14T12:51:34;2.85;;;1.05;;
73515;SDS011;61763;51.416;5.442;2023-06-14T12:54:00;2.20;;;0.55;;
73515;SDS011;61763;51.416;5.442;2023-06-14T12:56:25;2.95;;;1.00;;
73515;SDS011;61763;51.416;5.442;2023-06-14T12:58:51;4.30;;;1.00;;
73515;SDS011;61763;51.416;5.442;2023-06-14T13:01:17;2.33;;;0.90;;
73515;SDS011;61763;51.416;5.442;2023-06-14T13:03:42;2.20;;;1.23;;
73515;SDS011;61763;51.416;5.442;2023-06-14T13:06:08;6.80;;;1.00;;
73515;SDS011;61763;51.416;5.442;2023-06-14T13:11:00;3.08;;;0.80;;
73515;SDS011;61763;51.416;5.442;2023-06-14T13:13:25;1.60;;;0.95;;
73515;SDS011;61763;51.416;5.442;2023-06-14T13:15:51;4.65;;;1.20;;
73515;SDS011;61763;51.416;5.442;2023-06-14T13:18:16;4.38;;;1.13;;
73515;SDS011;61763;51.416;5.442;2023-06-14T13:20:42;5.38;;;0.70;;
73515;SDS011;61763;51.416;5.442;2023-06-14T13:23:07;2.50;;;0.88;;
73515;SDS011;61763;51.416;5.442;2023-06-14T13:25:35;2.63;;;0.50;;
73515;SDS011;61763;51.416;5.442;2023-06-14T13:28:01;4.85;;;0.70;;
73515;SDS011;61763;51.416;5.442;2023-06-14T13:30:27;2.92;;;0.93;;
73515;SDS011;61763;51.416;5.442;2023-06-14T13:32:52;2.03;;;0.60;;
73515;SDS011;61763;51.416;5.442;2023-06-14T13:35:18;1.25;;;0.60;;
73515;SDS011;61763;51.416;5.442;2023-06-14T13:37:44;1.65;;;0.75;;
73515;SDS011;61763;51.416;5.442;2023-06-14T13:40:10;1.48;;;0.70;;
73515;SDS011;61763;51.416;5.442;2023-06-14T13:42:37;2.00;;;0.80;;
73515;SDS011;61763;51.416;5.442;2023-06-14T13:45:03;2.13;;;0.63;;
73515;SDS011;61763;51.416;5.442;2023-06-14T13:47:29;3.53;;;0.95;;
73515;SDS011;61763;51.416;5.442;2023-06-14T13:49:56;6.93;;;0.95;;
73515;SDS011;61763;51.416;5.442;2023-06-14T13:52:21;2.17;;;0.80;;
73515;SDS011;61763;51.416;5.442;2023-06-14T13:54:47;2.97;;;0.80;;
73515;SDS011;61763;51.416;5.442;2023-06-14T13:57:12;6.35;;;1.00;;
73515;SDS011;61763;51.416;5.442;2023-06-14T13:59:38;2.58;;;0.65;;
73515;SDS011;61763;51.416;5.442;2023-06-14T14:02:05;5.13;;;0.75;;
73515;SDS011;61763;51.416;5.442;2023-06-14T14:04:31;2.20;;;0.70;;
73515;SDS011;61763;51.416;5.442;2023-06-14T14:06:56;2.47;;;0.70;;
73515;SDS011;61763;51.416;5.442;2023-06-14T14:09:22;2.05;;;0.75;;
73515;SDS011;61763;51.416;5.442;2023-06-14T14:11:47;1.85;;;1.05;;
73515;SDS011;61763;51.416;5.442;2023-06-14T14:14:13;2.75;;;0.90;;
73515;SDS011;61763;51.416;5.442;2023-06-14T14:16:39;1.40;;;0.80;;
73515;SDS011;61763;51.416;5.442;2023-06-14T14:19:04;2.15;;;0.55;;
73515;SDS011;61763;51.416;5.442;2023-06-14T14:21:31;2.15;;;0.50;;
73515;SDS011;61763;51.416;5.442;2023-06-14T14:23:57;2.65;;;0.40;;
73515;SDS011;61763;51.416;5.442;2023-06-14T14:26:22;2.13;;;0.60;;
73515;SDS011;61763;51.416;5.442;2023-06-14T14:28:48;3.38;;;0.93;;
73515;SDS011;61763;51.416;5.442;2023-06-14T14:31:14;2.42;;;0.50;;
73515;SDS011;61763;51.416;5.442;2023-06-14T14:33:39;1.65;;;0.63;;
73515;SDS011;61763;51.416;5.442;2023-06-14T14:36:04;1.63;;;0.47;;
73515;SDS011;61763;51.416;5.442;2023-06-14T14:38:31;2.00;;;0.60;;
73515;SDS011;61763;51.416;5.442;2023-06-14T14:40:57;1.88;;;0.60;;
73515;SDS011;61763;51.416;5.442;2023-06-14T14:43:22;2.15;;;0.50;;
73515;SDS011;61763;51.416;5.442;2023-06-14T14:45:48;2.80;;;0.57;;
73515;SDS011;61763;51.416;5.442;2023-06-14T14:48:13;4.00;;;0.60;;
73515;SDS011;61763;51.416;5.442;2023-06-14T14:50:38;2.75;;;0.47;;
73515;SDS011;61763;51.416;5.442;2023-06-14T14:53:05;1.65;;;0.47;;
73515;SDS011;61763;51.416;5.442;2023-06-14T14:55:30;3.15;;;0.60;;
73515;SDS011;61763;51.416;5.442;2023-06-14T14:57:57;3.13;;;0.30;;
73515;SDS011;61763;51.416;5.442;2023-06-14T15:00:22;3.05;;;0.88;;
73515;SDS011;61763;51.416;5.442;2023-06-14T15:02:48;2.78;;;0.65;;
73515;SDS011;61763;51.416;5.442;2023-06-14T15:05:13;4.18;;;0.85;;
73515;SDS011;61763;51.416;5.442;2023-06-14T15:07:39;1.75;;;0.93;;
73515;SDS011;61763;51.416;5.442;2023-06-14T15:10:05;1.45;;;0.50;;
73515;SDS011;61763;51.416;5.442;2023-06-14T15:14:57;1.60;;;0.50;;
73515;SDS011;61763;51.416;5.442;2023-06-14T15:17:22;2.05;;;0.75;;
73515;SDS011;61763;51.416;5.442;2023-06-14T15:19:49;2.45;;;0.40;;
73515;SDS011;61763;51.416;5.442;2023-06-14T15:22:15;2.88;;;0.82;;